createdAt,value
2022-09-10T00:01:28.936Z,10.02
2022-09-10T00:03:56.468Z,11.65
2022-09-10T00:06:27.912Z,12.85
2022-09-10T00:08:59.010Z,9.93
2022-09-10T00:11:31.860Z,13.10
2022-09-10T00:14:04.191Z,11.18
2022-09-10T00:16:32.349Z,11.30
2022-09-10T00:19:01.197Z,11.35
2022-09-10T00:21:29.791Z,12.57
2022-09-10T00:23:57.518Z,15.20
2022-09-10T00:26:28.991Z,13.60
2022-09-10T00:28:59.458Z,11.40
2022-09-10T00:31:27.819Z,9.05
2022-09-10T00:33:54.735Z,9.23
2022-09-10T00:36:28.818Z,9.93
2022-09-10T00:38:59.741Z,9.55
2022-09-10T00:41:27.199Z,9.70
2022-09-10T00:43:58.232Z,10.80
2022-09-10T00:46:50.086Z,11.50
2022-09-10T00:49:26.367Z,12.20
2022-09-10T00:51:54.057Z,9.70
2022-09-10T00:54:25.284Z,12.32
2022-09-10T00:56:57.060Z,11.30
2022-09-10T00:59:26.903Z,9.88
2022-09-10T01:01:55.524Z,9.35
2022-09-10T01:04:22.820Z,8.68
2022-09-10T01:06:53.484Z,9.80
2022-09-10T01:09:23.720Z,8.98
2022-09-10T01:12:24.619Z,9.85
2022-09-10T01:15:30.540Z,11.23
2022-09-10T01:18:41.750Z,7.85
2022-09-10T01:21:40.252Z,12.43
2022-09-10T01:24:32.933Z,11.57
2022-09-10T01:27:31.972Z,12.85
2022-09-10T01:30:07.496Z,13.32
2022-09-10T01:32:54.286Z,11.70
2022-09-10T01:35:40.329Z,11.30
2022-09-10T01:38:36.532Z,12.00
2022-09-10T01:41:05.755Z,14.93
2022-09-10T01:43:37.803Z,12.73
2022-09-10T01:46:51.880Z,11.45
2022-09-10T01:49:44.155Z,12.73
2022-09-10T01:52:39.030Z,17.08
2022-09-10T01:55:32.211Z,11.65
2022-09-10T01:58:19.948Z,12.25
2022-09-10T02:00:59.780Z,12.13
2022-09-10T02:03:28.655Z,11.80
2022-09-10T02:05:59.033Z,13.77
2022-09-10T02:08:35.188Z,11.65
2022-09-10T02:11:08.056Z,12.00
2022-09-10T02:13:38.750Z,12.88
2022-09-10T02:16:26.185Z,14.85
2022-09-10T02:18:53.237Z,12.35
2022-09-10T02:21:20.072Z,12.82
2022-09-10T02:23:55.047Z,14.23
2022-09-10T02:26:22.682Z,15.05
2022-09-10T02:28:50.348Z,17.48
2022-09-10T02:31:18.597Z,16.70
2022-09-10T02:33:45.573Z,17.08
2022-09-10T02:36:12.467Z,15.27
2022-09-10T02:38:39.328Z,17.38
2022-09-10T02:41:06.343Z,15.32
2022-09-10T02:43:37.987Z,15.43
2022-09-10T02:46:07.236Z,15.88
2022-09-10T02:48:35.149Z,16.40
2022-09-10T02:51:02.693Z,18.85
2022-09-10T02:53:31.523Z,16.55
2022-09-10T02:56:03.035Z,15.70
2022-09-10T02:58:34.014Z,17.23
2022-09-10T03:01:14.141Z,17.95
2022-09-10T03:03:42.643Z,15.55
2022-09-10T03:06:09.906Z,18.70
2022-09-10T03:08:37.051Z,15.90
2022-09-10T03:11:04.788Z,15.55
2022-09-10T03:13:34.684Z,16.42
2022-09-10T03:16:03.909Z,17.67
2022-09-10T03:18:35.131Z,15.80
2022-09-10T03:21:20.903Z,17.20
2022-09-10T03:23:52.540Z,15.98
2022-09-10T03:26:25.332Z,21.05
2022-09-10T03:28:53.434Z,17.85
2022-09-10T03:31:22.537Z,18.58
2022-09-10T03:33:51.000Z,16.58
2022-09-10T03:36:18.168Z,18.95
2022-09-10T03:38:47.386Z,17.77
2022-09-10T03:41:14.412Z,17.30
2022-09-10T03:43:41.228Z,20.27
2022-09-10T03:46:11.829Z,18.65
2022-09-10T03:48:40.164Z,20.05
2022-09-10T03:51:10.687Z,16.77
2022-09-10T03:53:38.546Z,16.83
2022-09-10T03:56:06.806Z,18.52
2022-09-10T03:58:35.714Z,17.50
2022-09-10T04:01:03.785Z,17.38
2022-09-10T04:03:32.930Z,16.17
2022-09-10T04:05:59.660Z,18.73
2022-09-10T04:08:26.430Z,16.83
2022-09-10T04:10:54.588Z,19.08
2022-09-10T04:13:22.252Z,16.80
2022-09-10T04:15:49.106Z,15.93
2022-09-10T04:18:16.028Z,16.73
2022-09-10T04:20:47.954Z,17.30
2022-09-10T04:23:16.324Z,16.80
2022-09-10T04:25:43.896Z,17.75
2022-09-10T04:28:11.533Z,16.98
2022-09-10T04:30:40.177Z,16.92
2022-09-10T04:33:07.672Z,16.58
2022-09-10T04:35:34.996Z,15.98
2022-09-10T04:38:04.515Z,15.68
2022-09-10T04:40:31.537Z,16.30
2022-09-10T04:42:58.395Z,15.80
2022-09-10T04:45:25.780Z,18.08
2022-09-10T04:47:54.170Z,15.45
2022-09-10T04:50:22.059Z,15.90
2022-09-10T04:53:11.500Z,14.35
2022-09-10T04:55:42.845Z,14.93
2022-09-10T04:58:10.722Z,14.85
2022-09-10T05:00:39.447Z,14.85
2022-09-10T05:03:07.764Z,13.20
2022-09-10T05:05:35.380Z,16.42
2022-09-10T05:08:05.624Z,13.25
2022-09-10T05:10:36.109Z,16.35
2022-09-10T05:13:05.534Z,12.95
2022-09-10T05:15:32.361Z,14.70
2022-09-10T05:17:59.308Z,12.85
2022-09-10T05:20:27.547Z,13.27
2022-09-10T05:22:56.114Z,13.18
2022-09-10T05:25:24.375Z,15.82
2022-09-10T05:27:51.311Z,14.90
2022-09-10T05:30:20.244Z,18.83
2022-09-10T05:32:47.584Z,13.02
2022-09-10T05:35:15.331Z,13.68
2022-09-10T05:37:45.587Z,13.52
2022-09-10T05:40:14.693Z,13.95
2022-09-10T05:42:42.251Z,15.40
2022-09-10T05:45:10.410Z,15.60
2022-09-10T05:47:37.869Z,13.80
2022-09-10T05:50:06.991Z,13.73
2022-09-10T05:52:34.449Z,13.73
2022-09-10T05:55:05.666Z,13.27
2022-09-10T05:57:33.131Z,14.05
2022-09-10T06:00:01.488Z,16.55
2022-09-10T06:02:29.418Z,15.15
2022-09-10T06:04:56.917Z,13.90
2022-09-10T06:07:23.767Z,15.20
2022-09-10T06:09:51.754Z,15.55
2022-09-10T06:12:34.158Z,16.58
2022-09-10T06:15:03.536Z,16.55
2022-09-10T06:17:30.396Z,17.90
2022-09-10T06:19:57.931Z,15.63
2022-09-10T06:22:24.980Z,16.58
2022-09-10T06:24:53.715Z,16.08
2022-09-10T06:27:22.990Z,16.08
2022-09-10T06:29:51.197Z,16.13
2022-09-10T06:32:18.549Z,17.58
2022-09-10T06:34:47.457Z,16.77
2022-09-10T06:37:14.478Z,16.17
2022-09-10T06:39:41.775Z,15.65
2022-09-10T06:42:08.632Z,15.63
2022-09-10T06:45:08.322Z,15.27
2022-09-10T06:48:37.587Z,15.98
2022-09-10T06:50:58.247Z,15.00
2022-09-10T06:53:33.269Z,17.88
2022-09-10T06:56:03.158Z,16.48
2022-09-10T06:58:36.814Z,16.85
2022-09-10T07:01:19.701Z,16.40
2022-09-10T07:04:01.602Z,15.52
2022-09-10T07:06:35.047Z,15.40
2022-09-10T07:09:14.922Z,15.15
2022-09-10T07:11:57.383Z,13.73
2022-09-10T07:14:24.524Z,14.90
2022-09-10T07:16:53.272Z,16.08
2022-09-10T07:19:22.925Z,13.10
2022-09-10T07:21:50.537Z,15.93
2022-09-10T07:24:17.394Z,13.18
2022-09-10T07:27:06.742Z,13.23
2022-09-10T07:29:35.506Z,14.63
2022-09-10T07:32:04.309Z,13.52
2022-09-10T07:34:31.479Z,17.02
2022-09-10T07:36:58.498Z,14.20
2022-09-10T07:39:26.078Z,13.05
2022-09-10T07:41:53.944Z,12.23
2022-09-10T07:44:24.561Z,11.45
2022-09-10T07:46:52.859Z,14.32
2022-09-10T07:49:20.674Z,13.65
2022-09-10T07:51:57.716Z,12.82
2022-09-10T07:54:28.589Z,10.15
2022-09-10T07:56:56.975Z,11.63
2022-09-10T07:59:23.919Z,10.70
2022-09-10T08:01:55.117Z,11.20
2022-09-10T08:04:23.446Z,9.32
2022-09-10T08:06:51.896Z,13.90
2022-09-10T08:09:19.339Z,10.20
2022-09-10T08:11:51.683Z,10.45
2022-09-10T08:14:21.056Z,10.50
2022-09-10T08:16:52.473Z,9.50
2022-09-10T08:19:19.988Z,10.02
2022-09-10T08:21:47.600Z,9.63
2022-09-10T08:24:19.427Z,11.20
2022-09-10T08:26:49.736Z,11.20
2022-09-10T08:29:17.724Z,10.95
2022-09-10T08:31:44.993Z,11.52
2022-09-10T08:34:18.211Z,12.75
2022-09-10T08:36:51.021Z,13.73
2022-09-10T08:39:17.765Z,11.27
2022-09-10T08:41:53.883Z,11.80
2022-09-10T08:44:49.885Z,10.95
2022-09-10T08:47:50.290Z,11.00
2022-09-10T08:50:26.927Z,11.88
2022-09-10T08:53:09.364Z,11.65
2022-09-10T08:55:41.304Z,13.02
2022-09-10T08:58:25.173Z,10.68
2022-09-10T09:00:58.721Z,10.70
2022-09-10T09:03:45.328Z,9.23
2022-09-10T09:06:31.835Z,12.18
2022-09-10T09:09:00.932Z,12.98
2022-09-10T09:11:37.772Z,11.50
2022-09-10T09:14:23.172Z,11.27
2022-09-10T09:17:19.963Z,11.57
2022-09-10T09:20:05.859Z,9.73
2022-09-10T09:23:17.527Z,7.60
2022-09-10T09:26:10.796Z,6.10
2022-09-10T09:28:52.542Z,5.78
2022-09-10T09:31:27.036Z,8.25
2022-09-10T09:34:04.863Z,5.65
2022-09-10T09:36:45.584Z,5.72
2022-09-10T09:39:36.003Z,3.38
2022-09-10T09:42:28.884Z,4.03
2022-09-10T09:45:16.959Z,5.50
2022-09-10T09:47:49.999Z,4.20
2022-09-10T09:50:20.560Z,3.55
2022-09-10T09:52:54.456Z,4.30
2022-09-10T09:55:33.456Z,3.05
2022-09-10T09:58:26.385Z,1.77
2022-09-10T10:01:05.584Z,2.30
2022-09-10T10:03:52.315Z,2.28
2022-09-10T10:06:24.696Z,2.97
2022-09-10T10:09:20.345Z,3.50
2022-09-10T10:11:53.582Z,5.57
2022-09-10T10:14:20.265Z,6.53
2022-09-10T10:16:49.189Z,4.32
2022-09-10T10:19:34.973Z,4.75
2022-09-10T10:22:22.538Z,6.30
2022-09-10T10:24:52.525Z,6.00
2022-09-10T10:27:36.704Z,6.55
2022-09-10T10:30:16.486Z,8.02
2022-09-10T10:32:57.907Z,11.23
2022-09-10T10:35:52.269Z,9.25
2022-09-10T10:38:31.223Z,9.90
2022-09-10T10:41:12.927Z,11.43
2022-09-10T10:44:03.845Z,9.50
2022-09-10T10:47:13.620Z,9.85
2022-09-10T10:50:36.507Z,9.45
2022-09-10T10:53:22.267Z,8.77
2022-09-10T10:56:05.100Z,9.18
2022-09-10T10:59:14.655Z,7.97
2022-09-10T11:01:55.738Z,7.40
2022-09-10T11:04:46.587Z,6.80
2022-09-10T11:07:25.515Z,7.55
2022-09-10T11:10:20.421Z,6.13
2022-09-10T11:13:13.393Z,4.88
2022-09-10T11:15:52.267Z,6.80
2022-09-10T11:18:31.558Z,5.78
2022-09-10T11:21:34.565Z,6.25
2022-09-10T11:24:08.665Z,4.90
2022-09-10T11:26:47.077Z,6.13
2022-09-10T11:30:10.180Z,3.70
2022-09-10T11:33:04.050Z,3.60
2022-09-10T11:36:11.523Z,2.28
2022-09-10T11:38:58.428Z,3.25
2022-09-10T11:41:32.575Z,2.67
2022-09-10T11:44:37.656Z,3.95
2022-09-10T11:47:27.724Z,2.78
2022-09-10T11:50:36.240Z,3.40
2022-09-10T11:53:07.262Z,2.80
2022-09-10T11:56:23.014Z,5.03
2022-09-10T11:59:27.013Z,4.68
2022-09-10T12:02:38.262Z,3.75
2022-09-10T12:05:23.447Z,4.70
2022-09-10T12:08:14.919Z,3.75
2022-09-10T12:11:08.749Z,3.25
2022-09-10T12:13:39.471Z,3.50
2022-09-10T12:16:38.312Z,4.25
2022-09-10T12:19:27.058Z,4.45
2022-09-10T12:22:01.957Z,5.03
2022-09-10T12:24:37.622Z,3.97
2022-09-10T12:27:06.964Z,7.43
2022-09-10T12:29:41.215Z,3.90
2022-09-10T12:32:07.899Z,3.95
2022-09-10T12:34:36.688Z,5.38
2022-09-10T12:37:07.784Z,6.30
2022-09-10T12:39:34.552Z,4.78
2022-09-10T12:42:23.930Z,6.47
2022-09-10T12:44:50.738Z,7.22
2022-09-10T12:47:17.368Z,5.40
2022-09-10T12:50:03.967Z,5.68
2022-09-10T12:52:51.442Z,7.50
2022-09-10T12:55:40.938Z,7.60
2022-09-10T12:59:01.975Z,8.65
2022-09-10T13:01:43.036Z,9.00
2022-09-10T13:04:37.583Z,5.93
2022-09-10T13:07:21.175Z,4.97
2022-09-10T13:10:05.276Z,5.57
2022-09-10T13:12:37.485Z,4.53
2022-09-10T13:15:05.966Z,6.82
2022-09-10T13:17:40.720Z,3.97
2022-09-10T13:20:30.186Z,5.28
2022-09-10T13:23:11.035Z,4.45
2022-09-10T13:25:41.332Z,4.35
2022-09-10T13:28:40.846Z,4.10
2022-09-10T13:31:10.910Z,3.47
2022-09-10T13:34:15.527Z,3.75
2022-09-10T13:37:24.763Z,5.38
2022-09-10T13:40:10.394Z,4.30
2022-09-10T13:43:06.514Z,2.78
2022-09-10T13:45:51.919Z,3.67
2022-09-10T13:48:28.102Z,3.88
2022-09-10T13:51:24.036Z,3.72
2022-09-10T13:53:53.312Z,2.58
2022-09-10T13:56:26.465Z,3.22
2022-09-10T13:59:03.187Z,3.40
2022-09-10T14:01:54.701Z,4.55
2022-09-10T14:04:26.404Z,3.55
2022-09-10T14:07:28.395Z,3.38
2022-09-10T14:10:06.959Z,6.10
2022-09-10T14:12:35.874Z,3.28
2022-09-10T14:15:06.322Z,3.72
2022-09-10T14:17:54.378Z,2.20
2022-09-10T14:20:27.322Z,3.15
2022-09-10T14:23:05.630Z,2.05
2022-09-10T14:25:35.141Z,2.40
2022-09-10T14:28:22.387Z,3.58
2022-09-10T14:30:51.213Z,3.05
2022-09-10T14:33:29.264Z,1.92
2022-09-10T14:35:58.908Z,3.80
2022-09-10T14:38:37.051Z,4.40
2022-09-10T14:41:22.026Z,2.95
2022-09-10T14:43:50.319Z,2.58
2022-09-10T14:47:12.699Z,4.10
2022-09-10T14:49:43.523Z,1.83
2022-09-10T14:52:11.639Z,3.50
2022-09-10T14:54:38.503Z,2.45
2022-09-10T14:57:15.724Z,6.70
2022-09-10T14:59:46.349Z,2.40
2022-09-10T15:02:28.844Z,3.05
2022-09-10T15:04:56.487Z,3.47
2022-09-10T15:07:27.404Z,2.30
2022-09-10T15:09:54.997Z,2.92
2022-09-10T15:12:31.763Z,4.43
2022-09-10T15:14:58.885Z,3.17
2022-09-10T15:17:26.932Z,2.30
2022-09-10T15:19:55.169Z,4.22
2022-09-10T15:22:30.374Z,4.30
2022-09-10T15:25:10.479Z,3.25
2022-09-10T15:27:37.739Z,3.55
2022-09-10T15:30:05.808Z,5.65
2022-09-10T15:32:32.656Z,3.72
2022-09-10T15:34:59.685Z,3.78
2022-09-10T15:37:26.968Z,3.75
2022-09-10T15:39:54.518Z,4.40
2022-09-10T15:42:21.491Z,5.68
2022-09-10T15:44:48.216Z,3.17
2022-09-10T15:47:14.919Z,4.13
2022-09-10T15:49:41.666Z,3.35
2022-09-10T15:52:09.342Z,3.53
2022-09-10T15:54:36.092Z,3.60
2022-09-10T15:57:02.909Z,2.72
2022-09-10T15:59:29.846Z,4.65
2022-09-10T16:01:56.667Z,3.75
2022-09-10T16:04:23.473Z,2.53
2022-09-10T16:06:50.220Z,2.83
2022-09-10T16:09:17.193Z,4.50
2022-09-10T16:11:44.432Z,5.18
2022-09-10T16:14:14.640Z,4.07
2022-09-10T16:16:41.548Z,3.67
2022-09-10T16:19:12.328Z,2.35
2022-09-10T16:21:39.253Z,2.80
2022-09-10T16:24:06.816Z,3.55
2022-09-10T16:26:39.138Z,3.30
2022-09-10T16:29:15.039Z,3.88
2022-09-10T16:31:43.363Z,3.33
2022-09-10T16:34:13.476Z,3.33
2022-09-10T16:36:40.399Z,2.45
2022-09-10T16:39:12.434Z,3.17
2022-09-10T16:41:42.730Z,3.92
2022-09-10T16:44:11.503Z,4.80
2022-09-10T16:46:38.661Z,4.22
2022-09-10T16:49:08.488Z,4.90
2022-09-10T16:51:36.030Z,4.43
2022-09-10T16:54:05.953Z,4.55
2022-09-10T16:56:42.676Z,5.07
2022-09-10T16:59:16.185Z,5.22
2022-09-10T17:01:45.032Z,4.57
2022-09-10T17:04:21.356Z,4.90
2022-09-10T17:06:51.032Z,4.57
2022-09-10T17:09:18.080Z,5.75
2022-09-10T17:11:44.912Z,4.78
2022-09-10T17:14:12.320Z,5.10
2022-09-10T17:16:41.802Z,5.00
2022-09-10T17:19:15.619Z,4.32
2022-09-10T17:21:55.052Z,4.00
2022-09-10T17:24:26.712Z,4.15
2022-09-10T17:26:55.205Z,4.78
2022-09-10T17:29:25.515Z,3.85
2022-09-10T17:31:52.759Z,3.72
2022-09-10T17:34:21.392Z,5.63
2022-09-10T17:36:49.054Z,3.42
2022-09-10T17:39:17.317Z,5.75
2022-09-10T17:41:45.102Z,4.22
2022-09-10T17:44:13.299Z,5.43
2022-09-10T17:46:41.326Z,5.75
2022-09-10T17:49:09.570Z,4.22
2022-09-10T17:51:37.289Z,4.90
2022-09-10T17:54:04.234Z,6.60
2022-09-10T17:56:31.476Z,7.85
2022-09-10T17:59:01.861Z,5.03
2022-09-10T18:01:32.270Z,4.78
2022-09-10T18:03:59.515Z,4.32
2022-09-10T18:06:28.942Z,5.45
2022-09-10T18:09:00.574Z,6.13
2022-09-10T18:11:32.124Z,6.07
2022-09-10T18:13:59.712Z,5.63
2022-09-10T18:16:31.035Z,3.55
2022-09-10T18:19:11.498Z,5.20
2022-09-10T18:21:42.315Z,4.50
2022-09-10T18:24:17.036Z,6.97
2022-09-10T18:26:46.930Z,4.22
2022-09-10T18:29:23.936Z,4.93
2022-09-10T18:31:55.674Z,4.32
2022-09-10T18:34:27.524Z,4.38
2022-09-10T18:36:58.232Z,5.63
2022-09-10T18:39:28.515Z,4.28
2022-09-10T18:41:56.056Z,5.13
2022-09-10T18:44:27.651Z,9.40
2022-09-10T18:46:55.936Z,4.60
2022-09-10T18:49:25.830Z,5.72
2022-09-10T18:51:55.183Z,12.65
2022-09-10T18:54:24.608Z,5.40
2022-09-10T18:56:53.255Z,6.35
2022-09-10T18:59:23.091Z,6.30
2022-09-10T19:01:53.049Z,8.30
2022-09-10T19:04:26.364Z,5.68
2022-09-10T19:06:54.239Z,5.45
2022-09-10T19:09:28.408Z,7.25
2022-09-10T19:11:58.364Z,5.50
2022-09-10T19:14:29.824Z,6.00
2022-09-10T19:16:58.548Z,6.90
2022-09-10T19:19:31.773Z,7.10
2022-09-10T19:22:06.982Z,7.68
2022-09-10T19:24:54.003Z,7.47
2022-09-10T19:27:22.407Z,7.15
2022-09-10T19:29:50.108Z,9.10
2022-09-10T19:32:19.505Z,6.93
2022-09-10T19:34:49.488Z,7.88
2022-09-10T19:37:17.043Z,9.95
2022-09-10T19:39:44.504Z,6.75
2022-09-10T19:42:12.401Z,7.85
2022-09-10T19:44:39.232Z,8.60
2022-09-10T19:47:05.996Z,8.88
2022-09-10T19:49:34.026Z,7.13
2022-09-10T19:52:01.406Z,7.75
2022-09-10T19:54:29.708Z,9.40
2022-09-10T19:56:56.467Z,8.65
2022-09-10T19:59:23.317Z,7.55
2022-09-10T20:01:50.094Z,7.75
2022-09-10T20:04:16.928Z,8.00
2022-09-10T20:06:45.804Z,8.40
2022-09-10T20:09:12.817Z,10.15
2022-09-10T20:11:39.639Z,7.68
2022-09-10T20:14:10.642Z,8.45
2022-09-10T20:16:41.591Z,8.10
2022-09-10T20:19:11.005Z,10.07
2022-09-10T20:21:38.848Z,7.65
2022-09-10T20:24:08.796Z,8.38
2022-09-10T20:26:38.172Z,9.20
2022-09-10T20:29:11.993Z,9.00
2022-09-10T20:31:41.089Z,7.55
2022-09-10T20:34:13.195Z,10.40
2022-09-10T20:36:43.675Z,10.77
2022-09-10T20:39:14.404Z,14.20
2022-09-10T20:41:42.517Z,9.55
2022-09-10T20:44:13.949Z,10.77
2022-09-10T20:46:41.484Z,9.88
2022-09-10T20:49:11.386Z,9.60
2022-09-10T20:51:40.423Z,8.82
2022-09-10T20:54:14.633Z,11.63
2022-09-10T20:56:42.126Z,10.57
2022-09-10T20:59:12.092Z,9.85
2022-09-10T21:01:39.076Z,9.65
2022-09-10T21:04:05.988Z,9.65
2022-09-10T21:06:34.537Z,9.82
2022-09-10T21:09:02.536Z,8.88
2022-09-10T21:11:32.594Z,9.30
2022-09-10T21:14:02.209Z,13.15
2022-09-10T21:16:32.111Z,9.70
2022-09-10T21:19:02.808Z,11.73
2022-09-10T21:21:33.900Z,11.45
2022-09-10T21:24:04.729Z,17.70
2022-09-10T21:26:39.030Z,11.30
2022-09-10T21:29:11.898Z,9.60
2022-09-10T21:31:39.107Z,9.02
2022-09-10T21:34:05.967Z,10.88
2022-09-10T21:36:36.644Z,11.20
2022-09-10T21:39:10.856Z,12.90
2022-09-10T21:41:44.552Z,12.35
2022-09-10T21:44:14.799Z,10.38
2022-09-10T21:46:43.369Z,10.50
2022-09-10T21:49:10.990Z,11.27
2022-09-10T21:51:38.058Z,11.25
2022-09-10T21:54:05.083Z,12.68
2022-09-10T21:56:32.383Z,10.88
2022-09-10T21:59:00.919Z,12.98
2022-09-10T22:01:32.179Z,10.98
2022-09-10T22:04:00.918Z,12.93
2022-09-10T22:06:31.675Z,13.48
2022-09-10T22:09:01.971Z,13.05
2022-09-10T22:11:32.411Z,13.68
2022-09-10T22:14:06.357Z,13.48
2022-09-10T22:16:35.373Z,14.25
2022-09-10T22:19:07.751Z,12.48
2022-09-10T22:21:38.048Z,14.45
2022-09-10T22:24:06.247Z,13.77
2022-09-10T22:26:33.859Z,13.82
2022-09-10T22:29:02.475Z,13.55
2022-09-10T22:31:34.570Z,13.05
2022-09-10T22:34:08.383Z,12.60
2022-09-10T22:36:38.324Z,12.48
2022-09-10T22:39:11.751Z,11.13
2022-09-10T22:41:39.615Z,13.27
2022-09-10T22:44:07.562Z,14.48
2022-09-10T22:46:36.219Z,10.88
2022-09-10T22:49:04.364Z,15.20
2022-09-10T22:51:36.351Z,13.13
2022-09-10T22:54:05.378Z,10.73
2022-09-10T22:56:35.668Z,12.98
2022-09-10T22:59:03.716Z,13.30
2022-09-10T23:01:35.824Z,11.13
2022-09-10T23:04:04.871Z,12.32
2022-09-10T23:06:35.156Z,12.25
2022-09-10T23:09:06.843Z,11.07
2022-09-10T23:11:36.251Z,11.23
2022-09-10T23:14:12.935Z,10.10
2022-09-10T23:16:43.379Z,11.57
2022-09-10T23:19:14.336Z,10.90
2022-09-10T23:21:45.298Z,12.10
2022-09-10T23:24:15.844Z,11.05
2022-09-10T23:26:44.098Z,12.98
2022-09-10T23:29:12.535Z,11.20
2022-09-10T23:31:40.889Z,11.88
2022-09-10T23:34:16.210Z,11.40
2022-09-10T23:36:45.956Z,10.10
2022-09-10T23:39:22.116Z,12.98
2022-09-10T23:41:53.421Z,11.90
2022-09-10T23:44:20.731Z,12.02
2022-09-10T23:46:47.914Z,11.90
2022-09-10T23:49:15.882Z,11.82
2022-09-10T23:51:42.735Z,12.98
2022-09-10T23:54:11.333Z,13.52
2022-09-10T23:56:38.968Z,12.15
2022-09-10T23:59:05.859Z,12.30
